Time;durP1;ratioP1;P1;durP2;ratioP2;P2;SDS_P1;SDS_P2;PMS_P1;PMS_P2;Temp;Humidity;BMP_temperature;BMP_pressure;BME280_temperature;BME280_humidity;BME280_pressure;Samples;Min_cycle;Max_cycle;Signal;HPM_P1;HPM_P2
2024/03/21 00:00:47;;;;;;;6.00;3.35;;;15.10;99.00;;;;;;5056665;28;20135;-73
2024/03/21 00:03:14;;;;;;;5.93;2.28;;;15.00;98.90;;;;;;5059863;28;20131;-72
2024/03/21 00:05:40;;;;;;;4.20;2.00;;;15.10;98.90;;;;;;5067383;28;20471;-72
2024/03/21 00:08:06;;;;;;;5.72;3.13;;;15.10;98.90;;;;;;5068850;28;20028;-72
2024/03/21 00:10:31;;;;;;;8.70;3.22;;;15.10;98.90;;;;;;5058105;28;20033;-72
2024/03/21 00:12:57;;;;;;;2.45;1.42;;;15.10;98.80;;;;;;5062517;28;20040;-72
2024/03/21 00:15:23;;;;;;;5.60;2.65;;;15.20;98.80;;;;;;5049650;28;20510;-72
2024/03/21 00:17:49;;;;;;;9.25;3.13;;;15.10;98.80;;;;;;5056268;28;20432;-72
2024/03/21 00:20:15;;;;;;;6.70;3.28;;;15.10;98.80;;;;;;5056034;28;20123;-72
2024/03/21 00:22:43;;;;;;;8.60;3.50;;;15.20;98.80;;;;;;5052077;28;20124;-72
2024/03/21 00:25:09;;;;;;;5.75;2.78;;;15.20;98.70;;;;;;5051857;28;20043;-72
2024/03/21 00:27:37;;;;;;;5.03;3.45;;;15.20;98.60;;;;;;5061973;28;20496;-72
2024/03/21 00:30:05;;;;;;;6.68;3.25;;;15.20;98.60;;;;;;5050863;28;20123;-72
2024/03/21 00:32:31;;;;;;;2.95;1.83;;;15.10;98.60;;;;;;5061616;28;20029;-72
2024/03/21 00:34:57;;;;;;;4.38;2.40;;;15.10;98.70;;;;;;5060351;28;20374;-72
2024/03/21 00:37:23;;;;;;;4.93;2.50;;;15.10;98.70;;;;;;5055023;28;20017;-72
2024/03/21 00:39:49;;;;;;;3.25;2.22;;;15.10;98.70;;;;;;5066400;28;20047;-73
2024/03/21 00:42:15;;;;;;;4.18;2.63;;;15.10;98.70;;;;;;5061654;28;20423;-72
2024/03/21 00:44:41;;;;;;;2.42;1.83;;;15.00;98.80;;;;;;5050974;28;20115;-72
2024/03/21 00:47:07;;;;;;;4.43;2.42;;;15.00;98.80;;;;;;5062692;28;20056;-72
2024/03/21 00:49:34;;;;;;;4.10;1.90;;;14.90;98.90;;;;;;5050065;28;20477;-72
2024/03/21 00:52:00;;;;;;;5.10;2.78;;;14.90;99.00;;;;;;5053322;28;20033;-72
2024/03/21 00:54:25;;;;;;;9.93;3.50;;;14.80;99.00;;;;;;5053253;28;20082;-72
2024/03/21 00:56:51;;;;;;;5.70;3.45;;;14.80;99.20;;;;;;5048674;28;20041;-73
2024/03/21 00:59:17;;;;;;;7.03;3.40;;;14.70;99.20;;;;;;5062031;28;20037;-73
2024/03/21 01:01:42;;;;;;;7.70;3.88;;;14.70;99.20;;;;;;5048596;28;20037;-74
2024/03/21 01:04:08;;;;;;;9.60;4.28;;;14.60;99.30;;;;;;5047721;28;20082;-73
2024/03/21 01:06:34;;;;;;;9.35;4.78;;;14.60;99.40;;;;;;5050571;28;20040;-73
2024/03/21 01:09:00;;;;;;;11.75;4.18;;;14.60;99.60;;;;;;5052258;28;20040;-73
2024/03/21 01:11:25;;;;;;;8.27;4.03;;;14.50;99.60;;;;;;5060906;28;20029;-73
2024/03/21 01:13:51;;;;;;;6.47;4.15;;;14.50;99.70;;;;;;5060995;28;20036;-73
2024/03/21 01:16:18;;;;;;;6.15;3.10;;;14.40;99.80;;;;;;5052822;28;20028;-73
2024/03/21 01:18:43;;;;;;;9.15;4.18;;;14.40;99.90;;;;;;5065964;28;20071;-73
2024/03/21 01:21:09;;;;;;;8.75;4.40;;;14.40;99.90;;;;;;5059350;28;20496;-73
2024/03/21 01:23:35;;;;;;;11.48;5.15;;;14.40;99.90;;;;;;5065399;28;20139;-73
2024/03/21 01:26:02;;;;;;;12.52;5.10;;;14.30;99.90;;;;;;5058337;28;20029;-73
2024/03/21 01:28:28;;;;;;;7.00;3.63;;;14.40;99.90;;;;;;5063470;28;20033;-73
2024/03/21 01:30:54;;;;;;;10.48;4.53;;;14.30;99.90;;;;;;5051111;28;20044;-74
2024/03/21 01:33:21;;;;;;;7.70;4.25;;;14.30;99.90;;;;;;5056878;28;20514;-74
2024/03/21 01:35:47;;;;;;;6.15;3.60;;;14.40;99.90;;;;;;5065968;28;20178;-73
2024/03/21 01:38:13;;;;;;;14.57;5.78;;;14.30;99.90;;;;;;5050094;28;20128;-73
2024/03/21 01:40:39;;;;;;;12.63;5.95;;;14.20;99.90;;;;;;5050612;28;20392;-73
2024/03/21 01:43:22;;;;;;;11.85;5.78;;;14.30;99.90;;;;;;5064988;28;20119;-73
2024/03/21 01:46:09;;;;;;;14.20;6.13;;;14.20;99.90;;;;;;5057206;28;20048;-73
2024/03/21 01:48:38;;;;;;;15.02;7.97;;;14.20;99.90;;;;;;5054719;28;20028;-73
2024/03/21 01:51:04;;;;;;;13.15;6.30;;;14.10;99.90;;;;;;5068747;28;20036;-73
2024/03/21 01:53:35;;;;;;;12.00;7.13;;;14.20;99.90;;;;;;5056313;28;20206;-73
2024/03/21 01:56:00;;;;;;;8.45;4.78;;;14.10;99.90;;;;;;5067044;28;20105;-73
2024/03/21 01:58:26;;;;;;;9.60;4.53;;;14.10;99.90;;;;;;5049875;28;20032;-73
2024/03/21 02:00:52;;;;;;;12.50;5.32;;;14.10;99.90;;;;;;5061068;28;20105;-73
2024/03/21 02:03:17;;;;;;;8.35;5.25;;;14.10;99.90;;;;;;5050107;28;20041;-73
2024/03/21 02:05:43;;;;;;;6.22;3.95;;;14.10;99.80;;;;;;5058161;28;20111;-73
2024/03/21 02:08:10;;;;;;;7.70;3.20;;;14.10;99.70;;;;;;5053273;28;20078;-73
2024/03/21 02:10:36;;;;;;;6.90;3.92;;;14.10;99.60;;;;;;5053957;28;20032;-73
2024/03/21 02:13:03;;;;;;;9.60;5.35;;;14.10;99.60;;;;;;5059416;28;20556;-73
2024/03/21 02:15:28;;;;;;;5.80;3.03;;;14.10;99.40;;;;;;5063245;28;20052;-73
2024/03/21 02:17:54;;;;;;;6.68;3.55;;;14.10;99.40;;;;;;5067636;28;20037;-73
2024/03/21 02:20:20;;;;;;;9.55;5.47;;;14.10;99.30;;;;;;5053917;28;20036;-73
2024/03/21 02:22:45;;;;;;;6.78;3.60;;;14.10;99.10;;;;;;5061753;28;20024;-74
2024/03/21 02:25:12;;;;;;;8.88;4.72;;;14.10;98.80;;;;;;5054326;28;20039;-73
2024/03/21 02:27:39;;;;;;;7.82;4.35;;;14.00;98.70;;;;;;5062377;28;20032;-73
2024/03/21 02:30:09;;;;;;;12.65;6.45;;;14.00;98.50;;;;;;5049195;28;20383;-73
2024/03/21 02:32:35;;;;;;;4.43;2.97;;;13.90;98.50;;;;;;5049596;28;20053;-73
2024/03/21 02:35:03;;;;;;;18.45;4.57;;;13.80;98.40;;;;;;5048446;28;20376;-73
2024/03/21 02:37:29;;;;;;;13.73;5.53;;;13.80;98.50;;;;;;5055972;28;20144;-73
2024/03/21 02:39:55;;;;;;;6.57;3.15;;;13.80;98.40;;;;;;5054710;28;20569;-73
2024/03/21 02:42:22;;;;;;;8.43;4.70;;;13.70;98.50;;;;;;5048257;28;20025;-73
2024/03/21 02:44:49;;;;;;;10.45;5.85;;;13.70;98.30;;;;;;5048080;28;20033;-73
2024/03/21 02:47:15;;;;;;;23.42;7.97;;;13.60;98.30;;;;;;5049113;28;20035;-74
2024/03/21 02:49:42;;;;;;;6.97;4.72;;;13.60;98.10;;;;;;5051614;28;20021;-73
2024/03/21 02:52:08;;;;;;;4.75;2.63;;;13.60;98.10;;;;;;5058163;28;20385;-72
2024/03/21 02:54:34;;;;;;;12.32;6.93;;;13.60;98.10;;;;;;5051628;28;20047;-72
2024/03/21 02:57:01;;;;;;;13.88;5.47;;;13.60;98.10;;;;;;5048094;28;20048;-73
2024/03/21 02:59:26;;;;;;;10.07;5.97;;;13.60;98.00;;;;;;5049100;28;20122;-73
2024/03/21 03:01:53;;;;;;;11.27;4.82;;;13.60;97.90;;;;;;5059739;28;20079;-73
2024/03/21 03:04:18;;;;;;;16.73;7.32;;;13.60;97.80;;;;;;5048774;28;20105;-73
2024/03/21 03:06:44;;;;;;;15.23;6.07;;;13.60;97.80;;;;;;5048375;28;20104;-73
2024/03/21 03:09:10;;;;;;;12.88;7.22;;;13.60;97.70;;;;;;5051467;28;20027;-73
2024/03/21 03:11:39;;;;;;;16.35;8.20;;;13.60;97.70;;;;;;5050889;28;20389;-74
2024/03/21 03:14:05;;;;;;;18.88;7.70;;;13.60;97.50;;;;;;5052903;28;20468;-73
2024/03/21 03:16:31;;;;;;;14.07;5.72;;;13.60;97.40;;;;;;5053961;28;20507;-73
2024/03/21 03:18:56;;;;;;;16.33;7.07;;;13.60;97.40;;;;;;5048921;28;20029;-74
2024/03/21 03:21:22;;;;;;;12.60;6.03;;;13.60;97.30;;;;;;5048211;28;20037;-73
2024/03/21 03:23:48;;;;;;;20.50;5.00;;;13.50;97.20;;;;;;5046401;28;20045;-73
2024/03/21 03:26:13;;;;;;;12.48;4.53;;;13.50;97.30;;;;;;5062627;28;20086;-74
2024/03/21 03:28:39;;;;;;;8.85;4.72;;;13.50;97.20;;;;;;5054756;28;20036;-73
2024/03/21 03:31:05;;;;;;;7.85;1.77;;;13.50;97.50;;;;;;5062513;28;20025;-74
2024/03/21 03:36:15;;;;;;;7.45;1.70;;;13.50;97.60;;;;;;5052003;28;20060;-73
2024/03/21 03:38:40;;;;;;;12.80;3.10;;;13.50;97.60;;;;;;5064268;28;20071;-73
2024/03/21 03:41:06;;;;;;;3.88;1.10;;;13.50;97.50;;;;;;5052385;28;20025;-73
2024/03/21 03:43:31;;;;;;;7.22;2.20;;;13.50;97.80;;;;;;5063626;28;20036;-74
2024/03/21 03:45:57;;;;;;;9.02;1.85;;;13.50;97.60;;;;;;5072250;28;20028;-74
2024/03/21 03:48:23;;;;;;;4.10;1.67;;;13.50;97.50;;;;;;5055716;28;20040;-73
2024/03/21 03:50:48;;;;;;;13.45;1.88;;;13.50;97.60;;;;;;5056822;28;20069;-73
2024/03/21 03:53:14;;;;;;;8.05;1.85;;;13.50;97.90;;;;;;5058503;28;20035;-74
2024/03/21 03:55:39;;;;;;;10.30;2.47;;;13.60;97.50;;;;;;5069010;28;20063;-73
2024/03/21 03:58:05;;;;;;;5.35;1.67;;;13.60;97.40;;;;;;5063453;28;20032;-74
2024/03/21 04:00:31;;;;;;;4.60;1.50;;;13.60;97.10;;;;;;5064589;28;20043;-73
2024/03/21 04:02:56;;;;;;;4.40;0.98;;;13.60;97.10;;;;;;5056882;28;20521;-73
2024/03/21 04:05:24;;;;;;;7.30;2.08;;;13.60;97.20;;;;;;5064549;28;20435;-73
2024/03/21 04:07:50;;;;;;;10.30;2.00;;;13.60;97.00;;;;;;5051801;28;20051;-74
2024/03/21 04:10:16;;;;;;;6.55;1.48;;;13.60;96.80;;;;;;5059023;28;20524;-73
2024/03/21 04:12:41;;;;;;;7.05;2.33;;;13.60;97.30;;;;;;5065060;28;20454;-73
2024/03/21 04:15:07;;;;;;;9.32;2.60;;;13.60;96.80;;;;;;5057347;28;20024;-73
2024/03/21 04:17:33;;;;;;;4.72;1.27;;;13.50;96.80;;;;;;5051345;28;20041;-73
2024/03/21 04:20:05;;;;;;;4.15;1.23;;;13.50;96.60;;;;;;5058202;28;20021;-73
2024/03/21 04:22:30;;;;;;;5.38;1.80;;;13.40;96.60;;;;;;5058499;28;20131;-73
2024/03/21 04:24:56;;;;;;;11.50;2.25;;;13.40;97.10;;;;;;5052922;28;20127;-73
2024/03/21 04:27:22;;;;;;;7.47;1.25;;;13.30;96.30;;;;;;5056138;28;20057;-73
2024/03/21 04:29:48;;;;;;;7.70;1.17;;;13.40;96.10;;;;;;5070589;28;20111;-73
2024/03/21 04:32:15;;;;;;;28.77;2.55;;;13.40;96.30;;;;;;5055344;28;20043;-73
2024/03/21 04:34:45;;;;;;;4.18;1.08;;;13.40;96.20;;;;;;5056885;28;20025;-73
2024/03/21 04:37:19;;;;;;;8.25;1.77;;;13.30;96.10;;;;;;5051703;28;20037;-73
2024/03/21 04:39:48;;;;;;;3.13;1.40;;;13.40;96.30;;;;;;5051424;28;20025;-73
2024/03/21 04:42:17;;;;;;;8.82;1.90;;;13.40;96.50;;;;;;5050867;28;20021;-73
2024/03/21 04:44:43;;;;;;;6.32;1.98;;;13.40;96.70;;;;;;5052547;28;20048;-74
2024/03/21 04:47:09;;;;;;;4.32;1.60;;;13.40;96.90;;;;;;5056570;28;20127;-74
2024/03/21 04:49:35;;;;;;;10.23;2.13;;;13.40;96.70;;;;;;5061696;28;20029;-73
2024/03/21 04:52:01;;;;;;;7.85;1.65;;;13.30;96.70;;;;;;5051058;28;20037;-71
2024/03/21 04:54:26;;;;;;;4.45;2.38;;;13.30;96.70;;;;;;5068043;28;20036;-74
2024/03/21 04:56:52;;;;;;;6.20;1.63;;;13.30;96.50;;;;;;5069763;28;20610;-74
2024/03/21 04:59:19;;;;;;;5.35;1.60;;;13.30;96.20;;;;;;5064009;28;20025;-72
2024/03/21 05:01:45;;;;;;;9.25;1.67;;;13.40;96.20;;;;;;5049936;28;20484;-72
2024/03/21 05:04:11;;;;;;;9.95;1.58;;;13.40;96.00;;;;;;5052327;28;20094;-73
2024/03/21 05:06:36;;;;;;;4.00;1.42;;;13.40;95.90;;;;;;5051765;28;20047;-72
2024/03/21 05:09:02;;;;;;;2.72;1.55;;;13.40;96.00;;;;;;5060830;28;20040;-73
2024/03/21 05:11:28;;;;;;;10.35;2.17;;;13.40;95.90;;;;;;5049668;28;20059;-74
2024/03/21 05:13:53;;;;;;;8.10;1.73;;;13.40;95.80;;;;;;5070419;28;20377;-72
2024/03/21 05:16:19;;;;;;;15.65;1.88;;;13.40;95.80;;;;;;5054842;28;20032;-72
2024/03/21 05:18:45;;;;;;;10.00;2.00;;;13.40;95.80;;;;;;5061917;28;20037;-72
2024/03/21 05:21:10;;;;;;;12.85;2.42;;;13.40;95.90;;;;;;5063871;28;20090;-72
2024/03/21 05:23:36;;;;;;;11.43;3.10;;;13.50;95.90;;;;;;5060342;28;20033;-72
2024/03/21 05:26:02;;;;;;;6.80;2.05;;;13.50;95.90;;;;;;5057169;28;20521;-72
2024/03/21 05:28:27;;;;;;;5.47;1.75;;;13.50;96.00;;;;;;5062229;28;20044;-72
2024/03/21 05:30:54;;;;;;;13.23;2.83;;;13.40;95.90;;;;;;5061558;28;20028;-71
2024/03/21 05:33:20;;;;;;;7.97;3.03;;;13.50;95.80;;;;;;5051697;28;20025;-71
2024/03/21 05:35:46;;;;;;;6.70;1.27;;;13.50;95.80;;;;;;5051622;28;20884;-72
2024/03/21 05:38:11;;;;;;;11.25;3.05;;;13.40;95.80;;;;;;5049666;28;20036;-72
2024/03/21 05:40:39;;;;;;;10.07;2.42;;;13.40;95.90;;;;;;5057769;28;20033;-73
2024/03/21 05:43:07;;;;;;;4.13;1.65;;;13.40;96.00;;;;;;5052337;28;20395;-72
2024/03/21 05:45:33;;;;;;;15.93;2.70;;;13.40;96.00;;;;;;5049812;28;20029;-73
2024/03/21 05:47:59;;;;;;;10.50;2.90;;;13.30;96.20;;;;;;5061063;28;20033;-70
2024/03/21 05:50:25;;;;;;;11.07;3.03;;;13.30;96.00;;;;;;5055177;28;20682;-73
2024/03/21 05:52:50;;;;;;;7.03;2.42;;;13.30;96.10;;;;;;5063230;28;20029;-72
2024/03/21 05:55:16;;;;;;;5.25;2.15;;;13.20;96.10;;;;;;5057902;28;20460;-72
2024/03/21 05:57:42;;;;;;;11.32;1.90;;;13.20;96.30;;;;;;5051009;28;20033;-73
2024/03/21 06:00:12;;;;;;;5.95;1.83;;;13.20;96.30;;;;;;5055105;28;20396;-78
2024/03/21 06:02:40;;;;;;;10.73;2.20;;;13.20;96.40;;;;;;5052099;28;20036;-73
2024/03/21 06:05:06;;;;;;;7.82;1.98;;;13.20;96.30;;;;;;5064929;28;20052;-73
2024/03/21 06:07:32;;;;;;;13.43;2.17;;;13.20;96.30;;;;;;5065718;28;20039;-73
2024/03/21 06:09:57;;;;;;;13.05;3.05;;;13.30;96.20;;;;;;5059057;28;20032;-73
2024/03/21 06:12:23;;;;;;;13.55;3.63;;;13.30;96.20;;;;;;5048963;28;20082;-73
2024/03/21 06:14:49;;;;;;;11.50;2.80;;;13.30;96.10;;;;;;5053445;28;20064;-73
2024/03/21 06:17:14;;;;;;;7.55;2.15;;;13.20;96.00;;;;;;5060070;28;20072;-74
2024/03/21 06:19:40;;;;;;;5.22;2.05;;;13.30;96.10;;;;;;5055106;28;20520;-74
2024/03/21 06:22:05;;;;;;;9.20;1.52;;;13.20;96.00;;;;;;5050755;28;20039;-74
2024/03/21 06:24:31;;;;;;;12.05;2.35;;;13.20;96.00;;;;;;5054387;28;20040;-73
2024/03/21 06:26:57;;;;;;;5.90;1.80;;;13.30;96.00;;;;;;5051331;28;20136;-74
2024/03/21 06:29:27;;;;;;;7.55;2.30;;;13.20;96.00;;;;;;5058119;28;20135;-74
2024/03/21 06:31:53;;;;;;;6.32;1.65;;;13.20;95.90;;;;;;5059565;28;20028;-73
2024/03/21 06:34:18;;;;;;;21.83;3.28;;;13.20;96.10;;;;;;5054422;28;20040;-73
2024/03/21 06:36:44;;;;;;;14.95;1.83;;;13.20;96.00;;;;;;5056723;28;20033;-73
2024/03/21 06:39:11;;;;;;;14.85;3.25;;;13.10;96.00;;;;;;5060594;28;20017;-73
2024/03/21 06:41:36;;;;;;;9.55;2.45;;;13.10;95.90;;;;;;5060394;28;20047;-73
2024/03/21 06:44:02;;;;;;;2.17;1.05;;;13.10;95.90;;;;;;5061496;28;20037;-74
2024/03/21 06:46:28;;;;;;;5.60;1.73;;;13.00;96.10;;;;;;5054981;28;20105;-73
2024/03/21 06:48:53;;;;;;;12.43;2.47;;;13.00;95.90;;;;;;5059389;28;20037;-73
2024/03/21 06:51:19;;;;;;;5.03;1.75;;;13.00;95.90;;;;;;5053815;28;20486;-73
2024/03/21 06:53:45;;;;;;;4.72;1.65;;;13.00;95.90;;;;;;5062839;28;20865;-74
2024/03/21 06:56:10;;;;;;;10.05;2.45;;;13.00;96.10;;;;;;5051894;28;20068;-73
2024/03/21 06:58:36;;;;;;;14.75;2.20;;;12.90;95.90;;;;;;5056656;28;20647;-74
2024/03/21 07:01:02;;;;;;;11.85;2.47;;;12.90;95.90;;;;;;5053742;28;20318;-73
2024/03/21 07:03:28;;;;;;;8.52;2.72;;;13.00;95.90;;;;;;5064418;28;20036;-73
2024/03/21 07:05:53;;;;;;;11.02;2.53;;;13.00;96.00;;;;;;5055099;28;20476;-73
2024/03/21 07:08:19;;;;;;;13.27;3.17;;;13.00;96.20;;;;;;5059258;28;20025;-73
2024/03/21 07:10:45;;;;;;;10.35;2.42;;;13.10;95.90;;;;;;5048014;28;20060;-73
2024/03/21 07:13:11;;;;;;;8.68;2.50;;;13.10;95.80;;;;;;5055387;28;20720;-73
2024/03/21 07:15:43;;;;;;;3.30;1.80;;;13.10;95.70;;;;;;5049032;28;20540;-73
2024/03/21 07:18:10;;;;;;;14.30;2.53;;;13.10;95.70;;;;;;5057311;28;20122;-73
2024/03/21 07:20:36;;;;;;;8.45;2.28;;;13.10;95.60;;;;;;5059474;28;20039;-73
2024/03/21 07:23:02;;;;;;;7.68;2.35;;;13.10;95.40;;;;;;5050962;28;20040;-73
2024/03/21 07:25:27;;;;;;;8.68;2.60;;;13.00;95.30;;;;;;5060696;28;20040;-73
2024/03/21 07:27:53;;;;;;;10.52;2.30;;;12.90;95.40;;;;;;5064446;28;20086;-73
2024/03/21 07:30:19;;;;;;;7.82;1.92;;;12.90;95.40;;;;;;5061978;28;20083;-73
2024/03/21 07:32:48;;;;;;;7.82;1.05;;;12.80;95.50;;;;;;5049025;28;20041;-73
2024/03/21 07:35:14;;;;;;;7.97;2.33;;;12.90;95.70;;;;;;5049841;28;20082;-73
2024/03/21 07:37:40;;;;;;;11.45;2.42;;;12.90;95.90;;;;;;5050022;28;20411;-73
2024/03/21 07:40:06;;;;;;;18.60;3.83;;;12.90;95.90;;;;;;5051289;28;20028;-73
2024/03/21 07:42:32;;;;;;;9.10;2.83;;;12.90;95.70;;;;;;5056280;28;20033;-73
2024/03/21 07:44:57;;;;;;;15.05;2.72;;;12.90;95.50;;;;;;5061074;28;20562;-73
2024/03/21 07:47:23;;;;;;;10.88;2.47;;;12.90;95.40;;;;;;5048639;28;20063;-73
2024/03/21 07:49:49;;;;;;;10.35;2.65;;;12.80;95.30;;;;;;5056641;28;20120;-73
2024/03/21 07:52:14;;;;;;;8.73;2.65;;;12.80;95.40;;;;;;5048886;28;20065;-73
2024/03/21 07:54:40;;;;;;;9.13;2.30;;;12.80;95.40;;;;;;5060772;28;20056;-73
2024/03/21 07:57:06;;;;;;;12.98;2.67;;;12.70;95.30;;;;;;5047937;28;20049;-73
2024/03/21 07:59:32;;;;;;;10.15;2.65;;;12.80;95.40;;;;;;5059770;28;20028;-73
2024/03/21 08:01:57;;;;;;;9.27;2.78;;;12.70;95.50;;;;;;5047653;28;20033;-73
2024/03/21 08:04:23;;;;;;;13.60;2.72;;;12.70;95.60;;;;;;5044516;28;20075;-72
2024/03/21 08:06:49;;;;;;;13.75;3.33;;;12.70;95.60;;;;;;5044727;28;20037;-72
2024/03/21 08:09:14;;;;;;;17.30;3.35;;;12.70;95.20;;;;;;5047958;28;20032;-72
2024/03/21 08:11:40;;;;;;;11.82;2.63;;;12.70;95.50;;;;;;5048982;28;20048;-73
2024/03/21 08:14:06;;;;;;;8.48;2.60;;;12.70;95.50;;;;;;5059321;28;20388;-72
2024/03/21 08:16:31;;;;;;;17.25;3.13;;;12.70;95.60;;;;;;5070231;28;20486;-73
2024/03/21 08:18:57;;;;;;;11.20;2.70;;;12.80;95.50;;;;;;5060707;28;20384;-72
2024/03/21 08:21:22;;;;;;;14.05;2.55;;;12.70;95.60;;;;;;5051662;28;20033;-72
2024/03/21 08:23:48;;;;;;;8.63;2.05;;;12.70;95.70;;;;;;5058043;28;20127;-72
2024/03/21 08:26:16;;;;;;;10.95;2.25;;;12.70;95.70;;;;;;5058229;28;20021;-73
2024/03/21 08:28:42;;;;;;;11.45;2.38;;;12.70;95.70;;;;;;5060916;28;20021;-73
2024/03/21 08:31:08;;;;;;;9.65;3.33;;;12.70;95.50;;;;;;5070030;28;20813;-73
2024/03/21 08:33:33;;;;;;;12.52;3.47;;;12.70;95.60;;;;;;5058864;28;20471;-73
2024/03/21 08:35:59;;;;;;;10.23;2.33;;;12.70;95.50;;;;;;5059049;28;20397;-73
2024/03/21 08:38:25;;;;;;;8.07;3.13;;;12.70;95.60;;;;;;5050701;28;20036;-73
2024/03/21 08:40:52;;;;;;;10.52;3.10;;;12.80;95.70;;;;;;5053983;28;20028;-73
2024/03/21 08:43:17;;;;;;;11.10;2.65;;;12.80;95.60;;;;;;5053997;28;20071;-73
2024/03/21 08:45:45;;;;;;;9.55;2.75;;;12.80;95.60;;;;;;5056904;28;20052;-73
2024/03/21 08:48:11;;;;;;;13.50;2.50;;;12.80;95.60;;;;;;5057586;28;20112;-74
2024/03/21 08:50:38;;;;;;;11.65;2.85;;;12.80;95.70;;;;;;5054448;28;20108;-73
2024/03/21 08:53:04;;;;;;;7.78;2.30;;;12.80;95.60;;;;;;5049037;28;20498;-73
2024/03/21 08:55:29;;;;;;;10.43;2.58;;;12.80;95.30;;;;;;5049936;28;20112;-73
2024/03/21 08:57:55;;;;;;;7.00;2.30;;;12.90;95.60;;;;;;5070691;28;20029;-73
2024/03/21 09:00:21;;;;;;;14.25;2.58;;;12.90;95.70;;;;;;5068201;28;20035;-73
2024/03/21 09:02:46;;;;;;;10.73;2.45;;;12.90;95.60;;;;;;5051521;28;20040;-73
2024/03/21 09:05:12;;;;;;;14.25;3.03;;;12.90;95.60;;;;;;5062352;28;20032;-73
2024/03/21 09:07:37;;;;;;;13.05;3.00;;;12.90;95.60;;;;;;5054998;28;20032;-73
2024/03/21 09:10:04;;;;;;;10.45;2.67;;;13.00;95.60;;;;;;5047442;28;20029;-73
2024/03/21 09:12:30;;;;;;;11.57;2.30;;;13.00;95.50;;;;;;5058811;28;20037;-73
2024/03/21 09:14:55;;;;;;;9.95;3.15;;;13.00;95.50;;;;;;5051758;28;20033;-73
2024/03/21 09:17:21;;;;;;;11.13;2.92;;;13.10;95.40;;;;;;5059963;28;20151;-73
2024/03/21 09:19:47;;;;;;;9.02;2.40;;;13.10;95.60;;;;;;5049288;28;20025;-73
2024/03/21 09:22:12;;;;;;;11.48;3.25;;;13.10;95.50;;;;;;5067920;28;20032;-73
2024/03/21 09:24:41;;;;;;;7.03;3.08;;;13.10;95.60;;;;;;5052963;28;20124;-73
2024/03/21 09:27:07;;;;;;;11.50;3.08;;;13.10;95.40;;;;;;5050329;28;20033;-73
2024/03/21 09:29:33;;;;;;;17.42;2.95;;;13.10;95.40;;;;;;5053005;28;20128;-73
2024/03/21 09:31:59;;;;;;;13.45;3.10;;;13.10;95.50;;;;;;5065574;28;20063;-73
2024/03/21 09:34:25;;;;;;;13.63;2.97;;;13.10;95.40;;;;;;5049538;28;20048;-73
2024/03/21 09:36:50;;;;;;;9.90;3.40;;;13.10;95.60;;;;;;5055463;28;20028;-73
2024/03/21 09:39:17;;;;;;;7.90;2.33;;;13.10;95.50;;;;;;5059538;28;20391;-73
2024/03/21 09:41:43;;;;;;;10.10;2.35;;;13.10;95.60;;;;;;5052108;28;20033;-73
2024/03/21 09:44:14;;;;;;;5.72;2.15;;;13.10;95.60;;;;;;5056763;28;20138;-73
2024/03/21 09:46:41;;;;;;;7.80;2.65;;;13.10;95.90;;;;;;5066302;28;20085;-73
2024/03/21 09:49:13;;;;;;;7.53;2.00;;;13.00;95.60;;;;;;5055982;28;20521;-73
2024/03/21 09:51:40;;;;;;;6.55;1.85;;;13.10;95.70;;;;;;5057990;28;20032;-73
2024/03/21 09:54:11;;;;;;;11.20;2.28;;;13.10;95.80;;;;;;5054543;28;20454;-74
2024/03/21 09:56:37;;;;;;;6.40;2.03;;;13.10;95.70;;;;;;5058523;28;20339;-73
2024/03/21 09:59:08;;;;;;;6.72;2.17;;;13.10;95.80;;;;;;5062992;28;20506;-73
2024/03/21 10:01:34;;;;;;;11.73;3.08;;;13.10;95.80;;;;;;5069485;28;20134;-73
2024/03/21 10:04:00;;;;;;;11.27;2.53;;;13.10;95.70;;;;;;5048586;28;20047;-73
2024/03/21 10:06:26;;;;;;;8.57;2.50;;;13.10;95.70;;;;;;5049396;28;20028;-73
2024/03/21 10:08:52;;;;;;;9.07;2.70;;;13.10;95.80;;;;;;5049089;28;20130;-73
2024/03/21 10:11:19;;;;;;;8.15;2.72;;;13.10;95.70;;;;;;5059594;28;20028;-73
2024/03/21 10:13:45;;;;;;;5.43;1.77;;;13.20;95.70;;;;;;5049583;28;20025;-73
2024/03/21 10:16:12;;;;;;;8.70;2.05;;;13.10;95.70;;;;;;5061547;28;20028;-73
2024/03/21 10:18:39;;;;;;;7.50;2.10;;;13.20;95.80;;;;;;5059108;28;20036;-73
2024/03/21 10:21:14;;;;;;;4.05;1.55;;;13.20;95.70;;;;;;5048912;28;20087;-73
2024/03/21 10:23:41;;;;;;;2.17;0.88;;;13.20;95.80;;;;;;5048562;28;20045;-74
2024/03/21 10:26:17;;;;;;;4.85;2.25;;;13.20;95.90;;;;;;5049088;28;20040;-73
2024/03/21 10:28:44;;;;;;;8.05;2.30;;;13.20;95.90;;;;;;5048081;28;20037;-73
2024/03/21 10:31:15;;;;;;;12.73;2.72;;;13.20;95.70;;;;;;5047641;28;20463;-74
2024/03/21 10:33:44;;;;;;;11.63;2.40;;;13.30;95.50;;;;;;5052547;28;20032;-73
2024/03/21 10:36:13;;;;;;;11.63;2.95;;;13.30;95.70;;;;;;5068444;28;20040;-73
2024/03/21 10:38:40;;;;;;;6.50;2.53;;;13.40;95.60;;;;;;5048199;28;20033;-74
2024/03/21 10:41:19;;;;;;;9.43;2.72;;;13.40;95.70;;;;;;5060979;28;20040;-73
2024/03/21 10:43:47;;;;;;;8.27;1.40;;;13.40;95.80;;;;;;5067253;28;20052;-74
2024/03/21 10:46:14;;;;;;;3.63;1.88;;;13.30;95.80;;;;;;5053088;28;20052;-73
2024/03/21 10:48:43;;;;;;;6.63;1.83;;;13.40;95.90;;;;;;5047825;28;20099;-73
2024/03/21 10:51:15;;;;;;;7.63;2.03;;;13.30;95.70;;;;;;5052818;28;20048;-73
2024/03/21 10:54:01;;;;;;;28.38;5.32;;;13.30;95.80;;;;;;5068234;28;20040;-74
2024/03/21 10:56:37;;;;;;;8.18;3.35;;;13.20;95.80;;;;;;5058141;28;20052;-73
2024/03/21 10:59:04;;;;;;;7.32;2.00;;;13.30;95.70;;;;;;5053660;28;20119;-73
2024/03/21 11:01:39;;;;;;;10.88;2.22;;;13.30;95.90;;;;;;5067608;28;20033;-73
2024/03/21 11:04:06;;;;;;;12.27;2.70;;;13.30;95.90;;;;;;5048085;28;20053;-73
2024/03/21 11:06:47;;;;;;;10.95;2.83;;;13.40;96.10;;;;;;5062007;28;20036;-74
2024/03/21 11:09:16;;;;;;;9.98;3.15;;;13.40;96.00;;;;;;5058588;28;20032;-73
2024/03/21 11:11:42;;;;;;;4.43;1.73;;;13.40;95.90;;;;;;5054251;28;20062;-73
2024/03/21 11:14:09;;;;;;;7.38;2.53;;;13.40;95.80;;;;;;5057311;28;20467;-73
2024/03/21 11:16:37;;;;;;;7.15;2.80;;;13.40;95.70;;;;;;5053490;28;20089;-74
2024/03/21 11:19:04;;;;;;;12.85;1.92;;;13.30;95.80;;;;;;5049895;28;20120;-74
2024/03/21 11:21:30;;;;;;;5.78;3.00;;;13.30;95.80;;;;;;5050872;28;20036;-73
2024/03/21 11:23:55;;;;;;;9.20;2.60;;;13.30;95.90;;;;;;5054745;28;20524;-74
2024/03/21 11:26:22;;;;;;;7.32;3.15;;;13.40;95.80;;;;;;5049860;28;20057;-74
2024/03/21 11:28:50;;;;;;;15.95;3.70;;;13.40;95.80;;;;;;5059572;28;20518;-73
2024/03/21 11:31:20;;;;;;;10.75;3.10;;;13.40;95.80;;;;;;5059813;28;20020;-74
2024/03/21 11:33:47;;;;;;;6.22;2.65;;;13.40;95.60;;;;;;5066091;28;20032;-74
2024/03/21 11:36:13;;;;;;;7.28;2.13;;;13.40;95.80;;;;;;5054292;28;20025;-74
2024/03/21 11:38:39;;;;;;;2.50;1.35;;;13.40;95.80;;;;;;5057976;28;20036;-74
2024/03/21 11:41:05;;;;;;;7.70;2.58;;;13.40;95.90;;;;;;5048001;28;20032;-74
2024/03/21 11:43:31;;;;;;;7.65;2.70;;;13.40;95.70;;;;;;5048402;28;20036;-74
2024/03/21 11:45:59;;;;;;;6.38;2.60;;;13.40;95.80;;;;;;5057102;28;20041;-74
2024/03/21 11:48:26;;;;;;;7.05;2.80;;;13.50;95.70;;;;;;5065951;28;20032;-73
2024/03/21 11:50:53;;;;;;;9.98;2.65;;;13.40;95.80;;;;;;5054429;28;20029;-73
2024/03/21 11:53:20;;;;;;;9.55;2.83;;;13.50;95.80;;;;;;5052578;28;20098;-74
2024/03/21 11:55:45;;;;;;;6.80;3.00;;;13.50;95.80;;;;;;5051676;28;20518;-73
2024/03/21 11:58:13;;;;;;;6.55;2.70;;;13.50;95.80;;;;;;5060282;28;20131;-73
2024/03/21 12:00:39;;;;;;;7.32;2.20;;;13.50;95.80;;;;;;5054510;28;20729;-73
2024/03/21 12:03:07;;;;;;;8.45;2.60;;;13.50;95.70;;;;;;5051756;28;20369;-73
2024/03/21 12:05:32;;;;;;;12.13;2.45;;;13.60;95.70;;;;;;5051084;28;20404;-73
2024/03/21 12:07:58;;;;;;;6.97;2.97;;;13.50;95.60;;;;;;5063578;28;20024;-74
2024/03/21 12:10:24;;;;;;;5.93;2.17;;;13.50;95.70;;;;;;5063943;28;20611;-73
2024/03/21 12:12:49;;;;;;;10.73;3.03;;;13.50;95.70;;;;;;5062456;28;20032;-73
2024/03/21 12:15:15;;;;;;;5.60;1.85;;;13.40;95.60;;;;;;5071155;28;20119;-73
2024/03/21 12:17:41;;;;;;;10.93;2.85;;;13.40;95.70;;;;;;5054998;28;20033;-73
2024/03/21 12:20:08;;;;;;;5.95;1.85;;;13.30;95.70;;;;;;5057707;28;20107;-73
2024/03/21 12:22:34;;;;;;;10.85;3.22;;;13.40;95.70;;;;;;5054459;28;20039;-73
2024/03/21 12:25:00;;;;;;;10.07;3.30;;;13.40;95.60;;;;;;5057696;28;20040;-73
2024/03/21 12:27:26;;;;;;;6.70;3.15;;;13.40;95.60;;;;;;5052326;28;20037;-73
2024/03/21 12:29:52;;;;;;;8.13;3.22;;;13.40;95.70;;;;;;5061506;28;20032;-73
2024/03/21 12:32:18;;;;;;;4.25;2.30;;;13.40;95.70;;;;;;5051424;28;20029;-72
2024/03/21 12:34:43;;;;;;;10.93;3.20;;;13.40;95.70;;;;;;5050508;28;20028;-73
2024/03/21 12:37:11;;;;;;;18.08;3.67;;;13.40;95.80;;;;;;5050942;28;20041;-72
2024/03/21 12:39:39;;;;;;;2.05;1.05;;;13.40;95.80;;;;;;5049466;28;20029;-72
2024/03/21 12:42:12;;;;;;;2.30;1.27;;;13.50;95.90;;;;;;5065130;28;20044;-72